This is the latest recevied weather packets stored in our database for station/object 1NW106. If no packets are shown the sender has not sent any weather packets the latest 10 day(s).
| Time | Temp. | Humidity | Pressure | Rain* | Wind** | Luminosity | Snow |
|---|---|---|---|---|---|---|---|
| 1787796569 | 27.78° C | 84% | 1009 hPa | 14.73 mm | - | - | - |
| 1787795969 | 27.22° C | 88% | 1008.6 hPa | 14.73 mm | - | - | - |
| 1787794769 | 27.22° C | 88% | 1008.4 hPa | 14.73 mm | - | - | - |
| 1787794169 | 26.67° C | 89% | 1008.1 hPa | 14.73 mm | - | - | - |
| 1787793569 | 26.11° C | 93% | 1007.4 hPa | 14.73 mm | - | - | - |
| 1787792970 | 26.11° C | 95% | 1007.2 hPa | 14.73 mm | - | - | - |
| 1787792369 | 25.56° C | 98% | 1006.5 hPa | 14.73 mm | - | - | - |
| 1787791769 | 25° C | 99% | 1006.2 hPa | 14.73 mm | - | - | - |
| 1787791169 | 25° C | 99% | 1005.8 hPa | 14.73 mm | - | - | - |
| 1787790569 | 24.44° C | 99% | 1004.1 hPa | 14.73 mm | - | - | - |
| 1787789969 | 23.89° C | 99% | 1002.8 hPa | 14.73 mm | - | - | - |
| 1787789369 | 23.33° C | 99% | 1002.3 hPa | 14.73 mm | - | - | - |
| 1787788769 | 23.33° C | 99% | 1002.2 hPa | 14.73 mm | - | - | - |
| 1787788169 | 22.78° C | 99% | 1002.2 hPa | 14.73 mm | - | - | - |
| 1787787570 | 22.78° C | 99% | 1002.3 hPa | 14.73 mm | - | - | - |
| 1787786969 | 22.78° C | 99% | 1002.3 hPa | 14.73 mm | - | - | - |
| 1787786369 | 22.78° C | 99% | 1002.2 hPa | 14.73 mm | - | - | - |
| 1787785769 | 22.78° C | 99% | 1002.4 hPa | 14.73 mm | - | - | - |
| 1787785169 | 22.78° C | 99% | 1002.6 hPa | 14.73 mm | - | - | - |
| 1787784569 | 23.33° C | 99% | 1002.7 hPa | 14.73 mm | - | - | - |
| 1787783969 | 23.33° C | 99% | 1002.8 hPa | 14.73 mm | - | - | - |
| 1787783371 | 23.33° C | 99% | 1003 hPa | 14.73 mm | - | - | - |
| 1787782770 | 23.33° C | 99% | 1002.3 hPa | 14.73 mm | - | - | - |
| 1787782169 | 23.33° C | 99% | 1002.1 hPa | 14.73 mm | - | - | - |
| 1787781569 | 23.33° C | 99% | 1002.4 hPa | 14.73 mm | - | - | - |
* Rain latest hour (hover to see other rain measurements)
** Current wind speed in m/s (hover to see current wind gust speed)